sensor_id;sensor_type;location;lat;lon;timestamp;P1;durP1;ratioP1;P2;durP2;ratioP2
71288;SDS011;59068;52.502;9.860;2023-02-28T00:00:04;4.10;;;3.67;;
71288;SDS011;59068;52.502;9.860;2023-02-28T00:02:37;4.28;;;3.13;;
71288;SDS011;59068;52.502;9.860;2023-02-28T00:05:04;4.05;;;3.38;;
71288;SDS011;59068;52.502;9.860;2023-02-28T00:07:30;3.53;;;3.17;;
71288;SDS011;59068;52.502;9.860;2023-02-28T00:09:56;4.35;;;3.22;;
71288;SDS011;59068;52.502;9.860;2023-02-28T00:12:22;3.10;;;2.90;;
71288;SDS011;59068;52.502;9.860;2023-02-28T00:14:47;4.57;;;3.13;;
71288;SDS011;59068;52.502;9.860;2023-02-28T00:17:13;3.30;;;2.97;;
71288;SDS011;59068;52.502;9.860;2023-02-28T00:19:38;3.00;;;2.67;;
71288;SDS011;59068;52.502;9.860;2023-02-28T00:22:04;3.43;;;3.03;;
71288;SDS011;59068;52.502;9.860;2023-02-28T00:24:29;3.20;;;2.90;;
71288;SDS011;59068;52.502;9.860;2023-02-28T00:26:54;5.27;;;3.00;;
71288;SDS011;59068;52.502;9.860;2023-02-28T00:29:20;4.30;;;3.10;;
71288;SDS011;59068;52.502;9.860;2023-02-28T00:31:45;4.90;;;3.30;;
71288;SDS011;59068;52.502;9.860;2023-02-28T00:34:10;4.90;;;3.00;;
71288;SDS011;59068;52.502;9.860;2023-02-28T00:36:36;3.33;;;2.97;;
71288;SDS011;59068;52.502;9.860;2023-02-28T00:39:01;5.13;;;2.60;;
71288;SDS011;59068;52.502;9.860;2023-02-28T00:41:27;4.77;;;2.80;;
71288;SDS011;59068;52.502;9.860;2023-02-28T00:43:52;4.70;;;3.00;;
71288;SDS011;59068;52.502;9.860;2023-02-28T00:46:17;3.87;;;3.00;;
71288;SDS011;59068;52.502;9.860;2023-02-28T00:48:43;3.57;;;3.07;;
71288;SDS011;59068;52.502;9.860;2023-02-28T00:51:08;2.93;;;2.50;;
71288;SDS011;59068;52.502;9.860;2023-02-28T00:53:34;4.33;;;3.07;;
71288;SDS011;59068;52.502;9.860;2023-02-28T00:55:59;3.50;;;2.53;;
71288;SDS011;59068;52.502;9.860;2023-02-28T00:58:25;4.57;;;3.03;;
71288;SDS011;59068;52.502;9.860;2023-02-28T01:00:50;2.73;;;2.50;;
71288;SDS011;59068;52.502;9.860;2023-02-28T01:03:18;3.67;;;2.90;;
71288;SDS011;59068;52.502;9.860;2023-02-28T01:05:44;3.40;;;2.80;;
71288;SDS011;59068;52.502;9.860;2023-02-28T01:08:09;4.13;;;3.03;;
71288;SDS011;59068;52.502;9.860;2023-02-28T01:10:35;5.30;;;3.10;;
71288;SDS011;59068;52.502;9.860;2023-02-28T01:13:02;4.90;;;3.40;;
71288;SDS011;59068;52.502;9.860;2023-02-28T01:15:27;3.43;;;3.00;;
71288;SDS011;59068;52.502;9.860;2023-02-28T01:17:53;3.17;;;2.73;;
71288;SDS011;59068;52.502;9.860;2023-02-28T01:20:18;4.10;;;2.77;;
71288;SDS011;59068;52.502;9.860;2023-02-28T01:22:43;4.20;;;3.27;;
71288;SDS011;59068;52.502;9.860;2023-02-28T01:25:09;4.13;;;2.90;;
71288;SDS011;59068;52.502;9.860;2023-02-28T01:27:34;4.77;;;3.10;;
71288;SDS011;59068;52.502;9.860;2023-02-28T01:30:00;2.90;;;2.58;;
71288;SDS011;59068;52.502;9.860;2023-02-28T01:32:26;4.47;;;3.07;;
71288;SDS011;59068;52.502;9.860;2023-02-28T01:34:51;4.13;;;3.10;;
71288;SDS011;59068;52.502;9.860;2023-02-28T01:37:17;3.70;;;3.10;;
71288;SDS011;59068;52.502;9.860;2023-02-28T01:39:42;3.43;;;3.13;;
71288;SDS011;59068;52.502;9.860;2023-02-28T01:42:08;5.00;;;3.50;;
71288;SDS011;59068;52.502;9.860;2023-02-28T01:47:20;3.72;;;3.38;;
71288;SDS011;59068;52.502;9.860;2023-02-28T01:49:47;4.88;;;3.35;;
71288;SDS011;59068;52.502;9.860;2023-02-28T01:52:13;4.00;;;3.10;;
71288;SDS011;59068;52.502;9.860;2023-02-28T01:54:49;4.05;;;3.00;;
71288;SDS011;59068;52.502;9.860;2023-02-28T01:57:18;5.75;;;3.45;;
71288;SDS011;59068;52.502;9.860;2023-02-28T01:59:47;4.70;;;3.85;;
71288;SDS011;59068;52.502;9.860;2023-02-28T02:02:16;5.30;;;3.35;;
71288;SDS011;59068;52.502;9.860;2023-02-28T02:04:50;5.18;;;3.40;;
71288;SDS011;59068;52.502;9.860;2023-02-28T02:07:17;5.30;;;3.75;;
71288;SDS011;59068;52.502;9.860;2023-02-28T02:09:43;5.57;;;3.50;;
71288;SDS011;59068;52.502;9.860;2023-02-28T02:12:12;5.67;;;4.10;;
71288;SDS011;59068;52.502;9.860;2023-02-28T02:15:00;5.15;;;3.53;;
71288;SDS011;59068;52.502;9.860;2023-02-28T02:17:31;4.47;;;3.92;;
71288;SDS011;59068;52.502;9.860;2023-02-28T02:33:03;4.80;;;3.53;;
71288;SDS011;59068;52.502;9.860;2023-02-28T02:35:40;5.85;;;4.03;;
71288;SDS011;59068;52.502;9.860;2023-02-28T02:38:32;4.35;;;3.38;;
71288;SDS011;59068;52.502;9.860;2023-02-28T02:41:07;5.32;;;3.47;;
71288;SDS011;59068;52.502;9.860;2023-02-28T02:43:47;5.00;;;3.60;;
71288;SDS011;59068;52.502;9.860;2023-02-28T02:46:48;4.20;;;3.35;;
71288;SDS011;59068;52.502;9.860;2023-02-28T02:49:42;5.45;;;3.60;;
71288;SDS011;59068;52.502;9.860;2023-02-28T02:52:02;6.00;;;4.03;;
71288;SDS011;59068;52.502;9.860;2023-02-28T02:54:30;6.50;;;4.07;;
71288;SDS011;59068;52.502;9.860;2023-02-28T02:57:03;5.32;;;3.47;;
71288;SDS011;59068;52.502;9.860;2023-02-28T02:59:33;6.95;;;3.83;;
71288;SDS011;59068;52.502;9.860;2023-02-28T03:02:01;5.85;;;4.15;;
71288;SDS011;59068;52.502;9.860;2023-02-28T03:04:30;5.22;;;3.88;;
71288;SDS011;59068;52.502;9.860;2023-02-28T03:06:58;3.70;;;3.35;;
71288;SDS011;59068;52.502;9.860;2023-02-28T03:09:24;6.13;;;3.43;;
71288;SDS011;59068;52.502;9.860;2023-02-28T03:11:51;3.88;;;3.50;;
71288;SDS011;59068;52.502;9.860;2023-02-28T03:14:39;6.05;;;4.05;;
71288;SDS011;59068;52.502;9.860;2023-02-28T03:23:08;4.75;;;3.67;;
71288;SDS011;59068;52.502;9.860;2023-02-28T03:29:02;4.32;;;3.08;;
71288;SDS011;59068;52.502;9.860;2023-02-28T03:31:38;3.33;;;3.03;;
71288;SDS011;59068;52.502;9.860;2023-02-28T03:36:50;4.93;;;3.47;;
71288;SDS011;59068;52.502;9.860;2023-02-28T03:39:23;3.33;;;2.78;;
71288;SDS011;59068;52.502;9.860;2023-02-28T03:42:00;3.97;;;3.13;;
71288;SDS011;59068;52.502;9.860;2023-02-28T03:44:30;5.45;;;3.38;;
71288;SDS011;59068;52.502;9.860;2023-02-28T03:46:59;3.38;;;3.05;;
71288;SDS011;59068;52.502;9.860;2023-02-28T03:49:32;4.45;;;3.25;;
71288;SDS011;59068;52.502;9.860;2023-02-28T03:52:04;3.67;;;3.15;;
71288;SDS011;59068;52.502;9.860;2023-02-28T03:54:31;6.18;;;3.13;;
71288;SDS011;59068;52.502;9.860;2023-02-28T03:56:59;3.45;;;3.15;;
71288;SDS011;59068;52.502;9.860;2023-02-28T03:59:34;5.70;;;3.60;;
71288;SDS011;59068;52.502;9.860;2023-02-28T04:02:03;3.67;;;3.03;;
71288;SDS011;59068;52.502;9.860;2023-02-28T04:04:29;4.43;;;3.00;;
71288;SDS011;59068;52.502;9.860;2023-02-28T04:07:00;5.00;;;3.10;;
71288;SDS011;59068;52.502;9.860;2023-02-28T04:09:28;4.65;;;3.25;;
71288;SDS011;59068;52.502;9.860;2023-02-28T04:11:53;4.43;;;3.03;;
71288;SDS011;59068;52.502;9.860;2023-02-28T04:14:20;4.70;;;3.58;;
71288;SDS011;59068;52.502;9.860;2023-02-28T04:16:46;3.93;;;2.80;;
71288;SDS011;59068;52.502;9.860;2023-02-28T04:19:12;3.80;;;2.60;;
71288;SDS011;59068;52.502;9.860;2023-02-28T04:21:39;3.70;;;2.92;;
71288;SDS011;59068;52.502;9.860;2023-02-28T04:24:07;3.50;;;3.00;;
71288;SDS011;59068;52.502;9.860;2023-02-28T04:26:34;3.20;;;2.72;;
71288;SDS011;59068;52.502;9.860;2023-02-28T04:29:01;3.17;;;2.63;;
71288;SDS011;59068;52.502;9.860;2023-02-28T04:31:27;3.83;;;2.90;;
71288;SDS011;59068;52.502;9.860;2023-02-28T04:33:53;3.60;;;2.93;;
71288;SDS011;59068;52.502;9.860;2023-02-28T04:36:18;3.60;;;3.10;;
71288;SDS011;59068;52.502;9.860;2023-02-28T04:38:44;4.20;;;3.17;;
71288;SDS011;59068;52.502;9.860;2023-02-28T04:41:10;3.45;;;3.15;;
71288;SDS011;59068;52.502;9.860;2023-02-28T04:43:36;3.58;;;3.10;;
71288;SDS011;59068;52.502;9.860;2023-02-28T04:46:02;3.67;;;2.67;;
71288;SDS011;59068;52.502;9.860;2023-02-28T04:48:28;4.28;;;2.83;;
71288;SDS011;59068;52.502;9.860;2023-02-28T04:50:55;3.97;;;2.88;;
71288;SDS011;59068;52.502;9.860;2023-02-28T04:53:20;4.23;;;2.97;;
71288;SDS011;59068;52.502;9.860;2023-02-28T04:55:46;6.50;;;3.23;;
71288;SDS011;59068;52.502;9.860;2023-02-28T04:58:12;4.40;;;3.20;;
71288;SDS011;59068;52.502;9.860;2023-02-28T05:00:38;3.88;;;3.40;;
71288;SDS011;59068;52.502;9.860;2023-02-28T05:03:04;3.50;;;3.20;;
71288;SDS011;59068;52.502;9.860;2023-02-28T05:05:29;4.83;;;3.37;;
71288;SDS011;59068;52.502;9.860;2023-02-28T05:07:55;3.83;;;3.23;;
71288;SDS011;59068;52.502;9.860;2023-02-28T05:10:21;5.37;;;3.47;;
71288;SDS011;59068;52.502;9.860;2023-02-28T05:12:47;4.88;;;3.65;;
71288;SDS011;59068;52.502;9.860;2023-02-28T05:15:13;4.10;;;3.10;;
71288;SDS011;59068;52.502;9.860;2023-02-28T05:17:39;4.63;;;3.50;;
71288;SDS011;59068;52.502;9.860;2023-02-28T05:20:05;4.60;;;3.43;;
71288;SDS011;59068;52.502;9.860;2023-02-28T05:22:31;3.88;;;3.50;;
71288;SDS011;59068;52.502;9.860;2023-02-28T05:24:57;3.80;;;3.40;;
71288;SDS011;59068;52.502;9.860;2023-02-28T05:27:22;4.40;;;3.03;;
71288;SDS011;59068;52.502;9.860;2023-02-28T05:29:48;4.27;;;3.33;;
71288;SDS011;59068;52.502;9.860;2023-02-28T05:32:14;5.03;;;3.83;;
71288;SDS011;59068;52.502;9.860;2023-02-28T05:34:39;6.13;;;4.10;;
71288;SDS011;59068;52.502;9.860;2023-02-28T05:37:05;5.63;;;4.10;;
71288;SDS011;59068;52.502;9.860;2023-02-28T05:39:31;4.00;;;3.47;;
71288;SDS011;59068;52.502;9.860;2023-02-28T05:41:57;5.23;;;3.97;;
71288;SDS011;59068;52.502;9.860;2023-02-28T05:44:22;6.77;;;4.20;;
71288;SDS011;59068;52.502;9.860;2023-02-28T05:46:48;6.80;;;4.73;;
71288;SDS011;59068;52.502;9.860;2023-02-28T05:49:13;4.70;;;3.37;;
71288;SDS011;59068;52.502;9.860;2023-02-28T05:51:38;4.40;;;3.93;;
71288;SDS011;59068;52.502;9.860;2023-02-28T05:54:05;5.33;;;3.77;;
71288;SDS011;59068;52.502;9.860;2023-02-28T05:56:30;4.43;;;3.80;;
71288;SDS011;59068;52.502;9.860;2023-02-28T05:58:56;4.47;;;3.80;;
71288;SDS011;59068;52.502;9.860;2023-02-28T06:01:43;4.30;;;3.53;;
71288;SDS011;59068;52.502;9.860;2023-02-28T06:04:13;4.53;;;4.05;;
71288;SDS011;59068;52.502;9.860;2023-02-28T06:06:42;4.35;;;3.92;;
71288;SDS011;59068;52.502;9.860;2023-02-28T06:09:11;4.53;;;4.13;;
71288;SDS011;59068;52.502;9.860;2023-02-28T06:11:36;3.93;;;3.53;;
71288;SDS011;59068;52.502;9.860;2023-02-28T06:14:02;5.20;;;4.10;;
71288;SDS011;59068;52.502;9.860;2023-02-28T06:16:28;4.87;;;4.37;;
71288;SDS011;59068;52.502;9.860;2023-02-28T06:18:54;4.40;;;3.92;;
71288;SDS011;59068;52.502;9.860;2023-02-28T06:21:22;6.43;;;4.72;;
71288;SDS011;59068;52.502;9.860;2023-02-28T06:23:48;6.50;;;5.00;;
71288;SDS011;59068;52.502;9.860;2023-02-28T06:26:13;8.67;;;5.23;;
71288;SDS011;59068;52.502;9.860;2023-02-28T06:28:39;5.67;;;4.93;;
71288;SDS011;59068;52.502;9.860;2023-02-28T06:31:05;7.20;;;4.77;;
71288;SDS011;59068;52.502;9.860;2023-02-28T06:33:40;6.03;;;5.40;;
71288;SDS011;59068;52.502;9.860;2023-02-28T06:36:06;6.53;;;5.68;;
71288;SDS011;59068;52.502;9.860;2023-02-28T06:38:32;6.90;;;5.80;;
71288;SDS011;59068;52.502;9.860;2023-02-28T06:40:58;7.63;;;5.83;;
71288;SDS011;59068;52.502;9.860;2023-02-28T06:43:25;6.22;;;5.63;;
71288;SDS011;59068;52.502;9.860;2023-02-28T06:45:56;5.63;;;5.00;;
71288;SDS011;59068;52.502;9.860;2023-02-28T06:48:23;7.57;;;5.70;;
71288;SDS011;59068;52.502;9.860;2023-02-28T06:50:49;7.23;;;5.33;;
71288;SDS011;59068;52.502;9.860;2023-02-28T06:53:14;6.87;;;5.30;;
71288;SDS011;59068;52.502;9.860;2023-02-28T06:55:40;6.80;;;4.77;;
71288;SDS011;59068;52.502;9.860;2023-02-28T06:58:06;7.53;;;5.00;;
71288;SDS011;59068;52.502;9.860;2023-02-28T07:00:42;6.10;;;4.75;;
71288;SDS011;59068;52.502;9.860;2023-02-28T07:03:08;6.68;;;4.82;;
71288;SDS011;59068;52.502;9.860;2023-02-28T07:05:35;6.22;;;5.03;;
71288;SDS011;59068;52.502;9.860;2023-02-28T07:08:01;5.32;;;4.72;;
71288;SDS011;59068;52.502;9.860;2023-02-28T07:10:28;5.57;;;4.90;;
71288;SDS011;59068;52.502;9.860;2023-02-28T07:12:54;5.32;;;4.82;;
71288;SDS011;59068;52.502;9.860;2023-02-28T07:15:19;6.00;;;5.13;;
71288;SDS011;59068;52.502;9.860;2023-02-28T07:17:45;5.70;;;5.00;;
71288;SDS011;59068;52.502;9.860;2023-02-28T07:20:10;5.03;;;3.70;;
71288;SDS011;59068;52.502;9.860;2023-02-28T07:22:39;12.73;;;9.55;;
71288;SDS011;59068;52.502;9.860;2023-02-28T07:25:05;7.83;;;6.90;;
71288;SDS011;59068;52.502;9.860;2023-02-28T07:27:31;7.00;;;6.30;;
71288;SDS011;59068;52.502;9.860;2023-02-28T07:29:56;7.93;;;5.33;;
71288;SDS011;59068;52.502;9.860;2023-02-28T07:32:22;7.23;;;4.93;;
71288;SDS011;59068;52.502;9.860;2023-02-28T07:34:47;7.23;;;5.20;;
71288;SDS011;59068;52.502;9.860;2023-02-28T07:37:13;6.03;;;5.43;;
71288;SDS011;59068;52.502;9.860;2023-02-28T07:39:39;5.93;;;5.17;;
71288;SDS011;59068;52.502;9.860;2023-02-28T07:42:07;6.90;;;5.80;;
71288;SDS011;59068;52.502;9.860;2023-02-28T07:44:35;6.00;;;5.40;;
71288;SDS011;59068;52.502;9.860;2023-02-28T07:47:05;6.68;;;5.32;;
71288;SDS011;59068;52.502;9.860;2023-02-28T07:49:30;6.77;;;5.80;;
71288;SDS011;59068;52.502;9.860;2023-02-28T07:51:57;7.45;;;5.35;;
71288;SDS011;59068;52.502;9.860;2023-02-28T07:54:22;7.00;;;4.77;;
71288;SDS011;59068;52.502;9.860;2023-02-28T07:56:47;6.53;;;5.50;;
71288;SDS011;59068;52.502;9.860;2023-02-28T07:59:13;7.97;;;5.53;;
71288;SDS011;59068;52.502;9.860;2023-02-28T08:01:38;9.73;;;5.93;;
71288;SDS011;59068;52.502;9.860;2023-02-28T08:04:03;6.83;;;5.70;;
71288;SDS011;59068;52.502;9.860;2023-02-28T08:06:29;11.60;;;7.00;;
71288;SDS011;59068;52.502;9.860;2023-02-28T08:08:54;14.90;;;8.53;;
71288;SDS011;59068;52.502;9.860;2023-02-28T08:11:21;10.57;;;6.05;;
71288;SDS011;59068;52.502;9.860;2023-02-28T08:13:46;7.87;;;6.67;;
71288;SDS011;59068;52.502;9.860;2023-02-28T08:16:13;8.83;;;6.27;;
71288;SDS011;59068;52.502;9.860;2023-02-28T08:18:46;5.28;;;4.80;;
71288;SDS011;59068;52.502;9.860;2023-02-28T08:21:12;7.97;;;5.23;;
71288;SDS011;59068;52.502;9.860;2023-02-28T08:23:37;5.70;;;4.17;;
71288;SDS011;59068;52.502;9.860;2023-02-28T08:26:03;5.43;;;4.63;;
71288;SDS011;59068;52.502;9.860;2023-02-28T08:28:29;6.23;;;4.50;;
71288;SDS011;59068;52.502;9.860;2023-02-28T08:30:54;6.57;;;4.67;;
71288;SDS011;59068;52.502;9.860;2023-02-28T08:33:20;5.70;;;4.37;;
71288;SDS011;59068;52.502;9.860;2023-02-28T08:35:46;6.37;;;5.07;;
71288;SDS011;59068;52.502;9.860;2023-02-28T08:38:11;5.70;;;5.10;;
71288;SDS011;59068;52.502;9.860;2023-02-28T08:40:37;4.93;;;4.47;;
71288;SDS011;59068;52.502;9.860;2023-02-28T08:43:02;5.80;;;4.23;;
71288;SDS011;59068;52.502;9.860;2023-02-28T08:45:27;5.90;;;4.90;;
71288;SDS011;59068;52.502;9.860;2023-02-28T08:47:54;6.37;;;4.30;;
71288;SDS011;59068;52.502;9.860;2023-02-28T08:50:20;5.00;;;4.50;;
71288;SDS011;59068;52.502;9.860;2023-02-28T08:52:45;5.50;;;4.20;;
71288;SDS011;59068;52.502;9.860;2023-02-28T08:55:11;5.70;;;4.07;;
71288;SDS011;59068;52.502;9.860;2023-02-28T08:57:36;4.60;;;3.53;;
71288;SDS011;59068;52.502;9.860;2023-02-28T09:00:03;3.53;;;3.23;;
71288;SDS011;59068;52.502;9.860;2023-02-28T09:02:29;3.85;;;3.08;;
71288;SDS011;59068;52.502;9.860;2023-02-28T09:04:56;4.25;;;3.25;;
71288;SDS011;59068;52.502;9.860;2023-02-28T09:07:21;3.80;;;2.63;;
71288;SDS011;59068;52.502;9.860;2023-02-28T09:09:47;3.10;;;2.80;;
71288;SDS011;59068;52.502;9.860;2023-02-28T09:12:19;2.92;;;2.60;;
71288;SDS011;59068;52.502;9.860;2023-02-28T09:14:48;4.40;;;2.78;;
71288;SDS011;59068;52.502;9.860;2023-02-28T09:17:13;2.57;;;2.20;;
71288;SDS011;59068;52.502;9.860;2023-02-28T09:19:38;3.53;;;2.53;;
71288;SDS011;59068;52.502;9.860;2023-02-28T09:22:04;2.67;;;2.17;;
71288;SDS011;59068;52.502;9.860;2023-02-28T09:24:29;2.47;;;1.93;;
71288;SDS011;59068;52.502;9.860;2023-02-28T09:26:56;2.20;;;2.00;;
71288;SDS011;59068;52.502;9.860;2023-02-28T09:29:22;2.13;;;1.80;;
71288;SDS011;59068;52.502;9.860;2023-02-28T09:31:47;2.40;;;2.20;;
71288;SDS011;59068;52.502;9.860;2023-02-28T09:34:12;2.13;;;1.93;;
71288;SDS011;59068;52.502;9.860;2023-02-28T09:36:38;2.30;;;2.10;;
71288;SDS011;59068;52.502;9.860;2023-02-28T09:39:03;3.20;;;1.97;;
71288;SDS011;59068;52.502;9.860;2023-02-28T09:41:29;2.40;;;2.20;;
71288;SDS011;59068;52.502;9.860;2023-02-28T09:44:02;2.10;;;1.90;;
71288;SDS011;59068;52.502;9.860;2023-02-28T09:49:06;3.07;;;1.90;;
71288;SDS011;59068;52.502;9.860;2023-02-28T09:51:46;1.90;;;1.70;;
71288;SDS011;59068;52.502;9.860;2023-02-28T09:54:24;2.97;;;1.73;;
71288;SDS011;59068;52.502;9.860;2023-02-28T09:56:51;2.10;;;1.90;;
71288;SDS011;59068;52.502;9.860;2023-02-28T10:02:18;2.27;;;1.93;;
71288;SDS011;59068;52.502;9.860;2023-02-28T10:05:07;2.97;;;1.80;;
71288;SDS011;59068;52.502;9.860;2023-02-28T10:07:38;2.07;;;1.90;;
71288;SDS011;59068;52.502;9.860;2023-02-28T10:10:07;3.47;;;1.87;;
71288;SDS011;59068;52.502;9.860;2023-02-28T10:13:01;2.03;;;1.83;;
71288;SDS011;59068;52.502;9.860;2023-02-28T10:15:30;2.60;;;1.60;;
71288;SDS011;59068;52.502;9.860;2023-02-28T10:17:58;3.13;;;1.83;;
71288;SDS011;59068;52.502;9.860;2023-02-28T10:20:25;1.60;;;1.33;;
71288;SDS011;59068;52.502;9.860;2023-02-28T10:25:33;1.40;;;1.27;;
71288;SDS011;59068;52.502;9.860;2023-02-28T10:28:12;2.37;;;1.47;;
71288;SDS011;59068;52.502;9.860;2023-02-28T10:30:47;2.03;;;1.13;;
71288;SDS011;59068;52.502;9.860;2023-02-28T10:33:23;1.53;;;1.20;;
71288;SDS011;59068;52.502;9.860;2023-02-28T10:36:02;3.13;;;1.10;;
71288;SDS011;59068;52.502;9.860;2023-02-28T10:38:35;1.13;;;0.93;;
71288;SDS011;59068;52.502;9.860;2023-02-28T10:41:03;1.73;;;1.30;;
71288;SDS011;59068;52.502;9.860;2023-02-28T10:43:31;2.10;;;1.53;;
71288;SDS011;59068;52.502;9.860;2023-02-28T10:48:38;1.70;;;1.60;;
71288;SDS011;59068;52.502;9.860;2023-02-28T10:51:10;1.97;;;1.10;;
71288;SDS011;59068;52.502;9.860;2023-02-28T11:01:47;1.80;;;0.90;;
71288;SDS011;59068;52.502;9.860;2023-02-28T11:04:19;2.23;;;1.07;;
71288;SDS011;59068;52.502;9.860;2023-02-28T11:06:48;1.30;;;1.20;;
71288;SDS011;59068;52.502;9.860;2023-02-28T11:09:23;1.17;;;0.97;;
71288;SDS011;59068;52.502;9.860;2023-02-28T11:11:52;1.23;;;0.97;;
71288;SDS011;59068;52.502;9.860;2023-02-28T11:14:22;2.27;;;1.80;;
71288;SDS011;59068;52.502;9.860;2023-02-28T11:16:59;0.73;;;0.73;;
71288;SDS011;59068;52.502;9.860;2023-02-28T11:19:41;0.63;;;0.60;;
71288;SDS011;59068;52.502;9.860;2023-02-28T11:22:10;1.70;;;0.60;;
71288;SDS011;59068;52.502;9.860;2023-02-28T11:24:37;1.10;;;0.77;;
71288;SDS011;59068;52.502;9.860;2023-02-28T11:27:18;0.50;;;0.50;;
71288;SDS011;59068;52.502;9.860;2023-02-28T11:29:50;1.83;;;0.77;;
71288;SDS011;59068;52.502;9.860;2023-02-28T11:32:20;0.57;;;0.57;;
71288;SDS011;59068;52.502;9.860;2023-02-28T11:34:59;0.57;;;0.57;;
71288;SDS011;59068;52.502;9.860;2023-02-28T11:37:29;0.73;;;0.70;;
71288;SDS011;59068;52.502;9.860;2023-02-28T11:39:56;0.60;;;0.50;;
71288;SDS011;59068;52.502;9.860;2023-02-28T11:45:41;1.00;;;0.80;;
71288;SDS011;59068;52.502;9.860;2023-02-28T11:48:22;1.20;;;0.70;;
71288;SDS011;59068;52.502;9.860;2023-02-28T11:51:03;0.70;;;0.67;;
71288;SDS011;59068;52.502;9.860;2023-02-28T11:56:50;0.83;;;0.60;;
71288;SDS011;59068;52.502;9.860;2023-02-28T12:02:26;0.60;;;0.60;;
71288;SDS011;59068;52.502;9.860;2023-02-28T12:05:15;1.70;;;1.03;;
71288;SDS011;59068;52.502;9.860;2023-02-28T12:10:29;1.23;;;0.60;;
71288;SDS011;59068;52.502;9.860;2023-02-28T12:19:07;1.53;;;1.00;;
71288;SDS011;59068;52.502;9.860;2023-02-28T12:27:02;1.90;;;0.90;;
71288;SDS011;59068;52.502;9.860;2023-02-28T12:29:31;1.47;;;0.77;;
71288;SDS011;59068;52.502;9.860;2023-02-28T12:32:01;1.30;;;0.73;;
71288;SDS011;59068;52.502;9.860;2023-02-28T12:34:33;1.53;;;0.80;;
71288;SDS011;59068;52.502;9.860;2023-02-28T12:37:16;1.00;;;0.80;;
71288;SDS011;59068;52.502;9.860;2023-02-28T12:39:45;1.77;;;0.93;;
71288;SDS011;59068;52.502;9.860;2023-02-28T12:42:13;1.53;;;0.63;;
71288;SDS011;59068;52.502;9.860;2023-02-28T12:44:58;0.80;;;0.80;;
71288;SDS011;59068;52.502;9.860;2023-02-28T12:47:24;2.10;;;1.10;;
71288;SDS011;59068;52.502;9.860;2023-02-28T12:49:54;1.63;;;0.70;;
71288;SDS011;59068;52.502;9.860;2023-02-28T12:52:25;1.37;;;0.60;;
71288;SDS011;59068;52.502;9.860;2023-02-28T12:55:08;0.93;;;0.83;;
71288;SDS011;59068;52.502;9.860;2023-02-28T12:57:48;1.33;;;0.90;;
71288;SDS011;59068;52.502;9.860;2023-02-28T13:00:20;2.40;;;1.10;;
71288;SDS011;59068;52.502;9.860;2023-02-28T13:03:02;2.30;;;0.80;;
71288;SDS011;59068;52.502;9.860;2023-02-28T13:11:00;1.63;;;1.13;;
71288;SDS011;59068;52.502;9.860;2023-02-28T13:13:26;2.00;;;1.77;;
71288;SDS011;59068;52.502;9.860;2023-02-28T13:16:02;4.40;;;2.97;;
71288;SDS011;59068;52.502;9.860;2023-02-28T13:18:30;2.70;;;1.20;;
71288;SDS011;59068;52.502;9.860;2023-02-28T13:20:57;2.27;;;1.17;;
71288;SDS011;59068;52.502;9.860;2023-02-28T13:34:30;0.87;;;0.87;;
71288;SDS011;59068;52.502;9.860;2023-02-28T13:45:22;3.00;;;1.10;;
71288;SDS011;59068;52.502;9.860;2023-02-28T14:06:37;3.97;;;1.70;;
71288;SDS011;59068;52.502;9.860;2023-02-28T14:11:42;2.00;;;1.13;;
71288;SDS011;59068;52.502;9.860;2023-02-28T14:14:09;3.50;;;1.63;;
71288;SDS011;59068;52.502;9.860;2023-02-28T14:16:44;1.73;;;1.13;;
71288;SDS011;59068;52.502;9.860;2023-02-28T14:19:24;1.30;;;1.20;;
71288;SDS011;59068;52.502;9.860;2023-02-28T14:29:41;1.30;;;0.90;;
71288;SDS011;59068;52.502;9.860;2023-02-28T14:35:03;3.00;;;1.00;;
71288;SDS011;59068;52.502;9.860;2023-02-28T14:37:41;1.47;;;1.10;;
71288;SDS011;59068;52.502;9.860;2023-02-28T14:40:12;2.53;;;1.33;;
71288;SDS011;59068;52.502;9.860;2023-02-28T14:42:45;1.63;;;1.40;;
71288;SDS011;59068;52.502;9.860;2023-02-28T14:45:20;1.60;;;1.20;;
71288;SDS011;59068;52.502;9.860;2023-02-28T14:47:46;2.30;;;1.10;;
71288;SDS011;59068;52.502;9.860;2023-02-28T14:50:22;1.13;;;1.03;;
71288;SDS011;59068;52.502;9.860;2023-02-28T14:52:53;1.80;;;1.27;;
71288;SDS011;59068;52.502;9.860;2023-02-28T14:55:20;1.50;;;1.33;;
71288;SDS011;59068;52.502;9.860;2023-02-28T14:57:54;1.67;;;1.10;;
71288;SDS011;59068;52.502;9.860;2023-02-28T15:02:56;2.17;;;1.30;;
71288;SDS011;59068;52.502;9.860;2023-02-28T15:05:24;2.97;;;1.27;;
71288;SDS011;59068;52.502;9.860;2023-02-28T15:08:01;3.67;;;1.50;;
71288;SDS011;59068;52.502;9.860;2023-02-28T15:10:27;2.43;;;1.37;;
71288;SDS011;59068;52.502;9.860;2023-02-28T15:12:53;1.97;;;1.50;;
71288;SDS011;59068;52.502;9.860;2023-02-28T15:15:27;1.87;;;1.40;;
71288;SDS011;59068;52.502;9.860;2023-02-28T15:18:00;2.23;;;1.20;;
71288;SDS011;59068;52.502;9.860;2023-02-28T15:20:28;2.37;;;1.27;;
71288;SDS011;59068;52.502;9.860;2023-02-28T15:22:54;1.77;;;1.40;;
71288;SDS011;59068;52.502;9.860;2023-02-28T15:25:20;2.27;;;1.50;;
71288;SDS011;59068;52.502;9.860;2023-02-28T15:27:47;1.43;;;1.30;;
71288;SDS011;59068;52.502;9.860;2023-02-28T15:30:16;2.77;;;1.40;;
71288;SDS011;59068;52.502;9.860;2023-02-28T15:32:43;1.20;;;1.10;;
71288;SDS011;59068;52.502;9.860;2023-02-28T15:37:54;3.70;;;1.60;;
71288;SDS011;59068;52.502;9.860;2023-02-28T15:45:33;2.27;;;1.37;;
71288;SDS011;59068;52.502;9.860;2023-02-28T15:48:02;1.63;;;1.40;;
71288;SDS011;59068;52.502;9.860;2023-02-28T15:50:28;1.93;;;1.40;;
71288;SDS011;59068;52.502;9.860;2023-02-28T15:52:53;1.73;;;1.63;;
71288;SDS011;59068;52.502;9.860;2023-02-28T15:57:45;2.00;;;1.77;;
71288;SDS011;59068;52.502;9.860;2023-02-28T16:00:15;2.23;;;2.03;;
71288;SDS011;59068;52.502;9.860;2023-02-28T16:02:43;2.83;;;2.40;;
71288;SDS011;59068;52.502;9.860;2023-02-28T16:07:34;2.47;;;1.67;;
71288;SDS011;59068;52.502;9.860;2023-02-28T16:10:01;1.50;;;1.40;;
71288;SDS011;59068;52.502;9.860;2023-02-28T16:12:29;1.70;;;1.60;;
71288;SDS011;59068;52.502;9.860;2023-02-28T16:14:56;2.77;;;1.37;;
71288;SDS011;59068;52.502;9.860;2023-02-28T16:17:26;2.23;;;1.50;;
71288;SDS011;59068;52.502;9.860;2023-02-28T16:19:53;4.00;;;1.67;;
71288;SDS011;59068;52.502;9.860;2023-02-28T16:22:20;2.00;;;1.60;;
71288;SDS011;59068;52.502;9.860;2023-02-28T16:24:45;2.13;;;1.60;;
71288;SDS011;59068;52.502;9.860;2023-02-28T16:27:18;1.60;;;1.50;;
71288;SDS011;59068;52.502;9.860;2023-02-28T16:29:46;3.00;;;1.73;;
71288;SDS011;59068;52.502;9.860;2023-02-28T16:32:14;1.67;;;1.57;;
71288;SDS011;59068;52.502;9.860;2023-02-28T16:34:40;3.17;;;1.80;;
71288;SDS011;59068;52.502;9.860;2023-02-28T16:37:16;1.97;;;1.87;;
71288;SDS011;59068;52.502;9.860;2023-02-28T16:39:42;2.70;;;2.17;;
71288;SDS011;59068;52.502;9.860;2023-02-28T16:42:10;2.63;;;1.20;;
71288;SDS011;59068;52.502;9.860;2023-02-28T16:44:41;4.83;;;2.63;;
71288;SDS011;59068;52.502;9.860;2023-02-28T16:47:08;3.67;;;2.00;;
71288;SDS011;59068;52.502;9.860;2023-02-28T16:49:35;2.40;;;1.83;;
71288;SDS011;59068;52.502;9.860;2023-02-28T16:52:00;2.87;;;1.70;;
71288;SDS011;59068;52.502;9.860;2023-02-28T16:54:25;2.30;;;1.90;;
71288;SDS011;59068;52.502;9.860;2023-02-28T16:56:51;2.87;;;1.60;;
71288;SDS011;59068;52.502;9.860;2023-02-28T16:59:22;1.70;;;1.60;;
71288;SDS011;59068;52.502;9.860;2023-02-28T17:01:49;2.60;;;2.30;;
71288;SDS011;59068;52.502;9.860;2023-02-28T17:04:15;3.03;;;2.30;;
71288;SDS011;59068;52.502;9.860;2023-02-28T17:06:40;3.27;;;2.77;;
71288;SDS011;59068;52.502;9.860;2023-02-28T17:09:08;3.40;;;3.10;;
71288;SDS011;59068;52.502;9.860;2023-02-28T17:11:40;3.27;;;2.97;;
71288;SDS011;59068;52.502;9.860;2023-02-28T17:14:05;3.73;;;3.43;;
71288;SDS011;59068;52.502;9.860;2023-02-28T17:16:32;4.13;;;3.73;;
71288;SDS011;59068;52.502;9.860;2023-02-28T17:18:59;4.23;;;3.83;;